Big Bear Station Historical Data
Daily Summary for September 12, 2017 Units:  English    Metric   Both
« Previous Day
Next Day »
Daily Weekly Monthly Yearly Custom
  High: Low: Average:
Temperature: 78.1 °F 50.7 °F 65.8 °F
Dew Point: 53.2 °F 43.4 °F 49.1 °F
Humidity: 89 % 40 % 57 %
Wind Speed: 6.8 mph 0.0 mph 2.8 mph
Wind Gust: -999.0 mph - -
Wind:- - SSW
Pressure: 30.29 in 30.19 in -
Precipitation: 0.00 in    
Historical Graphs
 
 
Tabular Data for September 12, 2017
Time Temperature Dew Point Pressure Wind Wind Speed Wind Gust Humidity Rainfall Rate (Hourly)
00:07 55.9 °F 50.5 °F 30.29 in Calm   -999.0 mph 82 % 0 in
00:22 56.1 °F 51.0 °F 30.28 in SSW 2.2 mph -999.0 mph 83 % 0 in
00:37 55.8 °F 50.7 °F 30.28 in Calm   -999.0 mph 83 % 0 in
04:41 52.3 °F 49.2 °F 30.27 in Calm   -999.0 mph 89 % 0 in
04:56 52.2 °F 49.1 °F 30.27 in Calm   -999.0 mph 89 % 0 in
05:11 51.8 °F 48.4 °F 30.27 in Calm   -999.0 mph 88 % 0 in
05:26 51.6 °F 47.9 °F 30.27 in South 2.2 mph -999.0 mph 87 % 0 in
05:42 51.3 °F 47.3 °F 30.27 in South 2.7 mph -999.0 mph 86 % 0 in
05:57 50.9 °F 46.9 °F 30.27 in Calm   -999.0 mph 86 % 0 in
06:12 51.1 °F 47.1 °F 30.27 in Calm   -999.0 mph 86 % 0 in
06:27 50.7 °F 47.0 °F 30.27 in Calm   -999.0 mph 87 % 0 in
06:42 50.7 °F 47.3 °F 30.27 in Calm   -999.0 mph 88 % 0 in
06:58 51.1 °F 47.7 °F 30.27 in Calm   -999.0 mph 88 % 0 in
07:13 50.9 °F 47.2 °F 30.27 in Calm   -999.0 mph 87 % 0 in
07:28 51.8 °F 48.1 °F 30.28 in Calm   -999.0 mph 87 % 0 in
07:43 52.3 °F 48.2 °F 30.28 in Calm   -999.0 mph 86 % 0 in
07:58 53.2 °F 49.4 °F 30.28 in Calm   -999.0 mph 87 % 0 in
08:14 54.1 °F 50.0 °F 30.28 in Calm   -999.0 mph 86 % 0 in
08:29 55.6 °F 51.5 °F 30.28 in Calm   -999.0 mph 86 % 0 in
08:44 59.4 °F 52.2 °F 30.28 in Calm   -999.0 mph 77 % 0 in
08:59 62.8 °F 50.4 °F 30.28 in South 2.2 mph -999.0 mph 64 % 0 in
09:14 65.5 °F 49.4 °F 30.28 in NW 6.8 mph -999.0 mph 56 % 0 in
09:30 66.9 °F 49.7 °F 30.28 in NW 2.2 mph -999.0 mph 54 % 0 in
09:45 67.8 °F 49.5 °F 30.28 in SSE 4.7 mph -999.0 mph 52 % 0 in
10:00 68.5 °F 50.2 °F 30.28 in SSW 3.7 mph -999.0 mph 52 % 0 in
10:15 69.4 °F 49.4 °F 30.28 in NNW 2.7 mph -999.0 mph 49 % 0 in
10:31 70.0 °F 50.0 °F 30.28 in SSE 2.7 mph -999.0 mph 49 % 0 in
10:46 72.1 °F 50.2 °F 30.28 in WSW 2.7 mph -999.0 mph 46 % 0 in
11:01 73.8 °F 50.5 °F 30.28 in South 2.7 mph -999.0 mph 44 % 0 in
11:16 74.8 °F 50.8 °F 30.28 in NW 3.2 mph -999.0 mph 43 % 0 in
11:31 72.9 °F 49.7 °F 30.28 in SSE 1.7 mph -999.0 mph 44 % 0 in
11:47 72.3 °F 50.4 °F 30.28 in North 3.7 mph -999.0 mph 46 % 0 in
12:02 72.1 °F 50.8 °F 30.28 in SW 1.1 mph -999.0 mph 47 % 0 in
12:17 71.2 °F 50.5 °F 30.28 in NW 2.7 mph -999.0 mph 48 % 0 in
12:33 73.8 °F 51.1 °F 30.27 in NE 2.7 mph -999.0 mph 45 % 0 in
12:48 76.6 °F 51.8 °F 30.26 in Calm   -999.0 mph 42 % 0 in
13:03 77.2 °F 51.0 °F 30.26 in SSE 6.3 mph -999.0 mph 40 % 0 in
13:18 77.7 °F 51.5 °F 30.26 in SW 5.3 mph -999.0 mph 40 % 0 in
13:33 76.3 °F 50.9 °F 30.26 in ESE 5.8 mph -999.0 mph 41 % 0 in
13:49 77.5 °F 52.0 °F 30.26 in West 3.2 mph -999.0 mph 41 % 0 in
14:04 78.1 °F 51.8 °F 30.26 in WNW 6.8 mph -999.0 mph 40 % 0 in
14:19 77.9 °F 51.6 °F 30.25 in SSE 2.2 mph -999.0 mph 40 % 0 in
14:34 77.0 °F 50.8 °F 30.25 in NNW 2.7 mph -999.0 mph 40 % 0 in
14:49 76.8 °F 50.7 °F 30.25 in SW 4.2 mph -999.0 mph 40 % 0 in
15:05 77.5 °F 51.3 °F 30.24 in NNW 4.7 mph -999.0 mph 40 % 0 in
15:20 75.9 °F 50.5 °F 30.24 in SW 2.7 mph -999.0 mph 41 % 0 in
15:35 76.8 °F 52.0 °F 30.24 in ESE 4.7 mph -999.0 mph 42 % 0 in
15:51 73.4 °F 52.0 °F 30.24 in South 3.2 mph -999.0 mph 47 % 0 in
16:06 73.4 °F 52.0 °F 30.24 in SSE 3.7 mph -999.0 mph 47 % 0 in
16:22 70.5 °F 51.5 °F 30.23 in SSW 3.2 mph -999.0 mph 51 % 0 in
16:37 70.9 °F 52.4 °F 30.23 in South 2.7 mph -999.0 mph 52 % 0 in
16:52 71.2 °F 53.2 °F 30.23 in SSE 5.3 mph -999.0 mph 53 % 0 in
17:07 72.5 °F 51.7 °F 30.23 in WSW 1.1 mph -999.0 mph 48 % 0 in
17:22 72.1 °F 51.3 °F 30.22 in ESE 4.7 mph -999.0 mph 48 % 0 in
17:38 71.1 °F 51.0 °F 30.22 in NNW 1.7 mph -999.0 mph 49 % 0 in
17:53 70.0 °F 50.0 °F 30.22 in SW 2.7 mph -999.0 mph 49 % 0 in
18:08 68.7 °F 49.8 °F 30.21 in South 5.3 mph -999.0 mph 51 % 0 in
18:24 67.6 °F 50.4 °F 30.21 in SSE 5.3 mph -999.0 mph 54 % 0 in
18:39 67.3 °F 49.1 °F 30.21 in SSW 4.7 mph -999.0 mph 52 % 0 in
18:54 66.7 °F 48.0 °F 30.20 in SW 2.2 mph -999.0 mph 51 % 0 in
19:09 66.6 °F 46.3 °F 30.19 in SSE 3.2 mph -999.0 mph 48 % 0 in
19:25 66.7 °F 45.8 °F 30.19 in SW 2.7 mph -999.0 mph 47 % 0 in
19:40 66.6 °F 46.3 °F 30.19 in SSE 3.7 mph -999.0 mph 48 % 0 in
19:55 66.4 °F 46.7 °F 30.19 in South 4.2 mph -999.0 mph 49 % 0 in
20:26 65.8 °F 46.6 °F 30.20 in South 4.2 mph -999.0 mph 50 % 0 in
20:41 65.5 °F 46.9 °F 30.20 in South 3.7 mph -999.0 mph 51 % 0 in
20:56 65.5 °F 46.9 °F 30.21 in SSE 4.2 mph -999.0 mph 51 % 0 in
21:12 65.3 °F 46.7 °F 30.21 in South 4.2 mph -999.0 mph 51 % 0 in
21:27 64.9 °F 46.3 °F 30.21 in SSE 4.7 mph -999.0 mph 51 % 0 in
21:42 65.1 °F 46.5 °F 30.21 in SSW 3.2 mph -999.0 mph 51 % 0 in
21:57 65.1 °F 46.0 °F 30.21 in South 6.8 mph -999.0 mph 50 % 0 in
22:13 65.1 °F 46.0 °F 30.21 in SSW 4.7 mph -999.0 mph 50 % 0 in
22:28 65.1 °F 46.0 °F 30.21 in SSE 4.7 mph -999.0 mph 50 % 0 in
22:43 64.9 °F 45.3 °F 30.21 in SW 2.7 mph -999.0 mph 49 % 0 in
22:58 64.8 °F 44.6 °F 30.21 in SSE 3.7 mph -999.0 mph 48 % 0 in
23:14 65.1 °F 44.4 °F 30.21 in South 4.2 mph -999.0 mph 47 % 0 in
23:29 64.4 °F 43.7 °F 30.21 in SSW 2.7 mph -999.0 mph 47 % 0 in
23:44 64.2 °F 43.5 °F 30.21 in SSW 2.2 mph -999.0 mph 47 % 0 in
23:59 64.0 °F 43.4 °F 30.21 in South 2.7 mph -999.0 mph 47 % 0 in
Big Bear CA Weather
Compliments of Weather Underground - 1.5 mb